Meander River, Canada
Current Conditions -  °F | °C
As of 5:00 PM on Saturday 22 Nov 2014 (Local Time) from CYOJ Reporting Station
Light Snow Light Snow  
Wind Chill: -7°   Ceiling: 2100
Heat Index:   Visibility: 1.5mi
Dew Point:   Wind: 9mph
Humidity: 92%   Direction: 350°N
Pressure: 29.71"   Gusts: NA
Location:  59.03°N, 117.68°W
Report Text: CYOJ 230000Z 35008KT 1 1/2SM -SN OVC021 M14/M15 A2971 RMK SC8 /S03/ SLP090
Loading
Personal Weather Stations






























Interactive Weather Map New forecast layout! Learn more

10-Day Weather Forecast

Advertisements
Track Severe Weather on mobile